Time;durP1;ratioP1;P1;durP2;ratioP2;P2;SDS_P1;SDS_P2;PMS_P1;PMS_P2;Temp;Humidity;BMP_temperature;BMP_pressure;BME280_temperature;BME280_humidity;BME280_pressure;Samples;Min_cycle;Max_cycle;Signal;HPM_P1;HPM_P2
2024/03/30 00:01:42;;;;;;;1.27;1.05;;;14.20;72.60;;;;;;4991069;28;20030;-63
2024/03/30 00:04:09;;;;;;;0.22;0.22;;;14.20;72.50;;;;;;4990390;28;20074;-63
2024/03/30 00:06:35;;;;;;;0.25;0.25;;;14.20;72.50;;;;;;4990608;28;20555;-64
2024/03/30 00:09:02;;;;;;;0.22;0.20;;;14.20;72.40;;;;;;4990720;28;20058;-63
2024/03/30 00:11:27;;;;;;;0.60;0.38;;;14.20;72.40;;;;;;4987395;28;20452;-63
2024/03/30 00:13:53;;;;;;;0.20;0.20;;;14.10;72.50;;;;;;4990765;28;20157;-66
2024/03/30 00:16:19;;;;;;;0.85;0.50;;;14.10;72.50;;;;;;4972799;28;20049;-63
2024/03/30 00:18:45;;;;;;;0.65;0.65;;;14.10;72.50;;;;;;4990751;28;20399;-63
2024/03/30 00:21:15;;;;;;;0.80;0.30;;;14.10;72.50;;;;;;4985254;28;20022;-63
2024/03/30 00:23:41;;;;;;;0.30;0.30;;;14.10;72.50;;;;;;4984751;28;20452;-64
2024/03/30 00:26:07;;;;;;;0.45;0.45;;;14.10;72.60;;;;;;4983367;28;20513;-63
2024/03/30 00:28:33;;;;;;;0.52;0.38;;;14.00;72.60;;;;;;4990518;28;20022;-63
2024/03/30 00:30:59;;;;;;;0.30;0.30;;;14.00;72.60;;;;;;4990618;28;20035;-63
2024/03/30 00:33:25;;;;;;;0.50;0.50;;;14.00;72.70;;;;;;4990446;28;20084;-63
2024/03/30 00:35:55;;;;;;;0.52;0.25;;;14.00;72.70;;;;;;4984940;28;20022;-63
2024/03/30 00:38:20;;;;;;;0.30;0.30;;;14.00;72.60;;;;;;4984843;28;20035;-66
2024/03/30 00:40:47;;;;;;;0.30;0.30;;;14.00;72.50;;;;;;4990337;28;20026;-66
2024/03/30 00:43:12;;;;;;;0.30;0.20;;;14.00;72.50;;;;;;4990390;28;20030;-66
2024/03/30 00:45:40;;;;;;;0.10;0.10;;;14.00;73.10;;;;;;4990193;28;20038;-66
2024/03/30 00:48:06;;;;;;;0.30;0.20;;;14.00;72.50;;;;;;4989907;28;20559;-66
2024/03/30 00:50:32;;;;;;;1.00;0.60;;;14.00;72.50;;;;;;4981516;28;20026;-66
2024/03/30 00:52:59;;;;;;;0.43;0.43;;;14.00;72.60;;;;;;4989505;28;20112;-66
2024/03/30 00:55:24;;;;;;;0.20;0.20;;;13.90;72.80;;;;;;4990107;28;20060;-66
2024/03/30 00:57:50;;;;;;;0.20;0.20;;;13.90;72.90;;;;;;4989683;28;20409;-66
2024/03/30 01:00:17;;;;;;;0.95;0.50;;;13.90;72.90;;;;;;4987198;28;20618;-66
2024/03/30 01:02:44;;;;;;;0.82;0.30;;;13.90;73.00;;;;;;4989600;28;20022;-66
2024/03/30 01:05:10;;;;;;;0.20;0.20;;;13.90;73.10;;;;;;4989831;28;20504;-66
2024/03/30 01:07:37;;;;;;;0.80;0.30;;;13.90;73.10;;;;;;4987918;28;20030;-66
2024/03/30 01:10:04;;;;;;;0.20;0.20;;;13.90;73.20;;;;;;4986369;28;20026;-66
2024/03/30 01:12:31;;;;;;;0.30;0.30;;;13.90;73.20;;;;;;4989740;28;20030;-66
2024/03/30 01:14:57;;;;;;;0.57;0.45;;;13.90;73.40;;;;;;4988574;28;20034;-66
2024/03/30 01:17:23;;;;;;;0.22;0.20;;;13.80;73.40;;;;;;4972718;28;20367;-66
2024/03/30 01:19:49;;;;;;;0.20;0.20;;;13.80;73.50;;;;;;4987869;28;20034;-66
2024/03/30 01:22:15;;;;;;;0.57;0.40;;;13.80;73.60;;;;;;4985832;28;20028;-66
2024/03/30 01:24:42;;;;;;;0.77;0.50;;;13.70;73.60;;;;;;4986301;28;20042;-66
2024/03/30 01:27:23;;;;;;;0.20;0.20;;;13.70;73.70;;;;;;4972821;28;20030;-66
2024/03/30 01:29:50;;;;;;;0.52;0.50;;;13.70;73.90;;;;;;4982830;28;20113;-66
2024/03/30 01:32:16;;;;;;;0.55;0.40;;;13.60;73.90;;;;;;4985502;28;20060;-66
2024/03/30 01:34:42;;;;;;;0.30;0.30;;;13.60;74.00;;;;;;4988030;28;20104;-67
2024/03/30 01:37:08;;;;;;;0.20;0.20;;;13.60;74.10;;;;;;4977084;28;20022;-66
2024/03/30 01:39:34;;;;;;;0.40;0.40;;;13.60;74.20;;;;;;4985352;28;20407;-66
2024/03/30 01:42:00;;;;;;;0.65;0.50;;;13.50;74.20;;;;;;4981892;28;20062;-66
2024/03/30 01:44:26;;;;;;;1.55;0.65;;;13.50;74.20;;;;;;4989351;28;20228;-66
2024/03/30 01:46:52;;;;;;;0.30;0.30;;;13.50;74.20;;;;;;4989678;28;20504;-66
2024/03/30 01:49:20;;;;;;;0.63;0.50;;;13.50;74.30;;;;;;4988295;28;20033;-66
2024/03/30 01:51:49;;;;;;;0.35;0.35;;;13.50;74.30;;;;;;4989825;28;20026;-66
2024/03/30 01:54:17;;;;;;;1.17;0.28;;;13.50;74.40;;;;;;4988143;28;20608;-66
2024/03/30 01:56:44;;;;;;;0.32;0.32;;;13.40;74.40;;;;;;4983155;28;20031;-66
2024/03/30 01:59:09;;;;;;;0.30;0.30;;;13.40;74.50;;;;;;4989359;28;20031;-66
2024/03/30 02:01:40;;;;;;;1.50;0.45;;;13.40;74.60;;;;;;4988161;28;20029;-66
2024/03/30 02:04:06;;;;;;;0.88;0.55;;;13.40;74.70;;;;;;4988533;28;20446;-66
2024/03/30 02:06:32;;;;;;;1.50;0.38;;;13.40;74.80;;;;;;4989018;28;20034;-66
2024/03/30 02:09:00;;;;;;;0.40;0.40;;;13.30;75.40;;;;;;4966580;28;20117;-66
2024/03/30 02:11:25;;;;;;;0.30;0.30;;;13.30;74.90;;;;;;4989612;28;20035;-66
2024/03/30 02:13:52;;;;;;;0.57;0.40;;;13.40;75.00;;;;;;4988277;28;20081;-66
2024/03/30 02:16:19;;;;;;;1.00;0.40;;;13.30;75.00;;;;;;4989201;28;20046;-66
2024/03/30 02:18:45;;;;;;;0.43;0.40;;;13.40;75.10;;;;;;4986647;28;20026;-65
2024/03/30 02:21:11;;;;;;;0.40;0.40;;;13.40;75.10;;;;;;4982413;28;20037;-66
2024/03/30 02:23:37;;;;;;;0.73;0.40;;;13.40;75.10;;;;;;4988819;28;20030;-66
2024/03/30 02:26:03;;;;;;;0.98;0.82;;;13.40;75.10;;;;;;4989486;28;20054;-66
2024/03/30 02:28:29;;;;;;;0.98;0.88;;;13.40;75.20;;;;;;4975529;28;20038;-66
2024/03/30 02:30:56;;;;;;;0.52;0.52;;;13.40;75.30;;;;;;4992909;28;20042;-65
2024/03/30 02:33:22;;;;;;;0.47;0.40;;;13.30;75.40;;;;;;4976713;28;20034;-65
2024/03/30 02:35:49;;;;;;;0.47;0.47;;;13.30;75.50;;;;;;4991936;28;20557;-65
2024/03/30 02:38:15;;;;;;;0.82;0.50;;;13.30;75.60;;;;;;4992078;28;20030;-65
2024/03/30 02:40:53;;;;;;;0.60;0.60;;;13.30;75.70;;;;;;4992345;28;20062;-66
2024/03/30 02:43:18;;;;;;;2.13;0.90;;;13.30;75.80;;;;;;4987588;28;20386;-65
2024/03/30 02:45:45;;;;;;;9.27;0.63;;;13.30;76.40;;;;;;4990091;28;20157;-66
2024/03/30 02:48:11;;;;;;;0.70;0.60;;;13.30;76.00;;;;;;4995631;28;20121;-66
2024/03/30 02:50:36;;;;;;;0.43;0.43;;;13.30;76.10;;;;;;4992119;28;20030;-66
2024/03/30 02:53:02;;;;;;;0.90;0.50;;;13.30;76.10;;;;;;4986266;28;20054;-66
2024/03/30 02:55:28;;;;;;;2.20;0.57;;;13.30;76.10;;;;;;4988371;28;20053;-66
2024/03/30 02:57:54;;;;;;;1.38;0.80;;;13.30;76.30;;;;;;4971288;28;20030;-67
2024/03/30 03:00:20;;;;;;;1.92;0.70;;;13.30;76.40;;;;;;4973570;28;20030;-67
2024/03/30 03:02:45;;;;;;;1.63;0.68;;;13.30;76.50;;;;;;4991887;28;20030;-67
2024/03/30 03:05:11;;;;;;;0.70;0.70;;;13.30;76.60;;;;;;4991608;28;20490;-67
2024/03/30 03:07:37;;;;;;;0.75;0.50;;;13.30;76.80;;;;;;4992338;28;20374;-67
2024/03/30 03:10:03;;;;;;;0.77;0.55;;;13.30;76.90;;;;;;4992247;28;20031;-67
2024/03/30 03:12:30;;;;;;;0.30;0.30;;;13.20;76.90;;;;;;4974912;28;20043;-67
2024/03/30 03:14:57;;;;;;;2.70;0.73;;;13.20;77.00;;;;;;4990692;28;20076;-67
2024/03/30 03:17:22;;;;;;;0.80;0.80;;;13.20;77.10;;;;;;4983332;28;20026;-67
2024/03/30 03:19:48;;;;;;;0.70;0.60;;;13.20;77.30;;;;;;4972761;28;20053;-67
2024/03/30 03:22:14;;;;;;;2.05;0.73;;;13.20;77.50;;;;;;4991493;28;20077;-67
2024/03/30 03:24:42;;;;;;;0.40;0.40;;;13.20;77.60;;;;;;4989996;28;20030;-64
2024/03/30 03:27:08;;;;;;;0.63;0.50;;;13.20;77.60;;;;;;4966752;28;20074;-65
2024/03/30 03:29:34;;;;;;;0.52;0.52;;;13.20;77.50;;;;;;4980276;28;20060;-65
2024/03/30 03:32:00;;;;;;;0.60;0.50;;;13.20;77.50;;;;;;4971073;28;20048;-65
2024/03/30 03:34:26;;;;;;;1.40;0.68;;;13.20;77.50;;;;;;4981193;28;20038;-65
2024/03/30 03:36:52;;;;;;;0.73;0.63;;;13.20;77.50;;;;;;4981514;28;20497;-65
2024/03/30 03:39:19;;;;;;;1.27;1.00;;;13.20;77.70;;;;;;4985373;28;20056;-67
2024/03/30 03:41:45;;;;;;;0.70;0.60;;;13.20;77.90;;;;;;4976084;28;20038;-67
2024/03/30 03:44:11;;;;;;;1.05;0.82;;;13.10;78.10;;;;;;4972626;28;20096;-67
2024/03/30 03:46:36;;;;;;;1.20;1.05;;;13.10;78.30;;;;;;4981402;28;20030;-67
2024/03/30 03:49:02;;;;;;;1.42;0.80;;;13.10;78.40;;;;;;4991870;28;20030;-64
2024/03/30 03:51:30;;;;;;;0.77;0.70;;;13.10;78.50;;;;;;4991080;28;20125;-64
2024/03/30 03:53:55;;;;;;;1.00;0.70;;;13.10;78.50;;;;;;4989079;28;20128;-63
2024/03/30 03:56:22;;;;;;;0.95;0.80;;;13.10;78.50;;;;;;4988162;28;20054;-64
2024/03/30 03:58:47;;;;;;;0.70;0.60;;;13.10;78.40;;;;;;4991450;28;20034;-63
2024/03/30 04:01:14;;;;;;;1.05;0.80;;;13.10;79.00;;;;;;4985405;28;20037;-64
2024/03/30 04:03:41;;;;;;;1.35;1.25;;;13.10;78.50;;;;;;4987866;28;20480;-64
2024/03/30 04:06:11;;;;;;;1.98;1.15;;;13.10;78.70;;;;;;4984355;28;20023;-64
2024/03/30 04:08:37;;;;;;;1.25;1.15;;;13.10;78.80;;;;;;4989137;28;20033;-64
2024/03/30 04:11:05;;;;;;;1.10;0.90;;;13.10;79.00;;;;;;4991527;28;20252;-64
2024/03/30 04:13:34;;;;;;;1.05;0.88;;;13.10;79.00;;;;;;4987676;28;20038;-64
2024/03/30 04:16:04;;;;;;;1.08;0.80;;;13.10;79.00;;;;;;4990987;28;20515;-64
2024/03/30 04:18:31;;;;;;;0.75;0.75;;;13.10;79.10;;;;;;4984537;28;20026;-64
2024/03/30 04:20:58;;;;;;;0.52;0.52;;;13.10;79.00;;;;;;4990002;28;20029;-67
2024/03/30 04:23:26;;;;;;;0.90;0.80;;;13.10;78.90;;;;;;4988217;28;20377;-67
2024/03/30 04:26:08;;;;;;;0.52;0.52;;;13.10;78.90;;;;;;4990179;28;20027;-67
2024/03/30 04:28:34;;;;;;;0.90;0.70;;;13.10;78.90;;;;;;4988813;28;20034;-67
2024/03/30 04:31:03;;;;;;;0.82;0.60;;;13.00;78.90;;;;;;4990519;28;20031;-67
2024/03/30 04:33:29;;;;;;;0.80;0.70;;;13.00;78.90;;;;;;4987656;28;20034;-67
2024/03/30 04:36:00;;;;;;;1.50;1.00;;;13.00;79.00;;;;;;4966872;28;20041;-67
2024/03/30 04:38:27;;;;;;;0.65;0.65;;;13.00;79.10;;;;;;4987309;28;20027;-67
2024/03/30 04:41:01;;;;;;;0.95;0.70;;;13.00;79.20;;;;;;4981960;28;20031;-67
2024/03/30 04:43:28;;;;;;;0.50;0.50;;;13.00;79.20;;;;;;4989688;28;20031;-67
2024/03/30 04:45:54;;;;;;;1.40;0.80;;;13.00;79.20;;;;;;4966364;28;20088;-64
2024/03/30 04:48:22;;;;;;;1.08;0.98;;;13.00;79.20;;;;;;4964418;28;20034;-65
2024/03/30 04:50:47;;;;;;;1.42;0.80;;;13.00;79.30;;;;;;4987894;28;20030;-64
2024/03/30 04:53:18;;;;;;;1.33;0.77;;;13.00;79.40;;;;;;4970800;28;20116;-64
2024/03/30 04:55:55;;;;;;;1.60;0.80;;;13.00;79.50;;;;;;4986537;28;20121;-64
2024/03/30 04:58:26;;;;;;;1.50;1.00;;;13.00;79.50;;;;;;4986449;28;20119;-64
2024/03/30 05:00:53;;;;;;;0.45;0.45;;;13.00;79.60;;;;;;4988282;28;20054;-64
2024/03/30 05:03:19;;;;;;;1.08;0.73;;;13.00;79.60;;;;;;4987288;28;20154;-64
2024/03/30 05:05:47;;;;;;;1.70;1.05;;;13.00;79.60;;;;;;4988904;28;20029;-64
2024/03/30 05:08:13;;;;;;;1.90;0.80;;;13.00;79.60;;;;;;4987486;28;20022;-64
2024/03/30 05:10:39;;;;;;;1.20;0.70;;;13.00;79.50;;;;;;4989105;28;20022;-63
2024/03/30 05:13:06;;;;;;;1.00;0.90;;;12.90;79.50;;;;;;4979762;28;20030;-63
2024/03/30 05:15:34;;;;;;;0.90;0.70;;;12.90;79.70;;;;;;4986690;28;20362;-64
2024/03/30 05:18:00;;;;;;;0.88;0.80;;;12.90;79.80;;;;;;4983801;28;20105;-64
2024/03/30 05:23:10;;;;;;;1.42;1.00;;;12.90;79.90;;;;;;4983494;28;20515;-64
2024/03/30 05:25:36;;;;;;;1.23;1.02;;;12.90;79.90;;;;;;4970713;28;20030;-67
2024/03/30 05:28:02;;;;;;;1.20;0.93;;;12.80;79.90;;;;;;4987908;28;20468;-67
2024/03/30 05:30:28;;;;;;;1.77;1.20;;;12.80;80.00;;;;;;4987243;28;20385;-67
2024/03/30 05:32:54;;;;;;;0.88;0.88;;;12.80;80.10;;;;;;4989018;28;21036;-67
2024/03/30 05:35:20;;;;;;;1.10;0.82;;;12.80;80.10;;;;;;4985051;28;20157;-67
2024/03/30 05:37:46;;;;;;;1.80;1.30;;;12.80;80.20;;;;;;4983285;28;20496;-67
2024/03/30 05:40:12;;;;;;;1.70;1.17;;;12.80;80.20;;;;;;4984610;28;20026;-67
2024/03/30 05:42:38;;;;;;;1.35;1.20;;;12.80;80.30;;;;;;4984253;28;20042;-67
2024/03/30 05:45:04;;;;;;;1.23;1.13;;;12.80;80.30;;;;;;4986450;28;20030;-63
2024/03/30 05:47:31;;;;;;;1.38;1.10;;;12.80;80.40;;;;;;4989346;28;20038;-64
2024/03/30 05:49:56;;;;;;;1.58;1.20;;;12.80;80.40;;;;;;4966238;28;20125;-63
2024/03/30 05:52:22;;;;;;;1.77;1.17;;;12.80;80.40;;;;;;4988718;28;20630;-64
2024/03/30 05:54:48;;;;;;;1.20;0.73;;;12.80;80.50;;;;;;4989180;28;20571;-63
2024/03/30 05:57:14;;;;;;;1.48;1.05;;;12.80;80.50;;;;;;4989324;28;20030;-63
2024/03/30 05:59:40;;;;;;;1.00;0.80;;;12.80;80.40;;;;;;4987245;28;20027;-63
2024/03/30 06:02:05;;;;;;;1.35;0.88;;;12.80;80.40;;;;;;4990031;28;20492;-64
2024/03/30 06:04:31;;;;;;;1.55;1.27;;;12.80;80.40;;;;;;4975303;28;20046;-64
2024/03/30 06:06:57;;;;;;;1.08;0.90;;;12.80;80.30;;;;;;4992613;28;20274;-65
2024/03/30 06:09:23;;;;;;;1.33;0.82;;;12.80;80.30;;;;;;4991403;28;20045;-64
2024/03/30 06:11:49;;;;;;;0.95;0.70;;;12.80;80.30;;;;;;4989502;28;20038;-64
2024/03/30 06:14:15;;;;;;;1.27;0.68;;;12.80;80.30;;;;;;4990145;28;20089;-64
2024/03/30 06:16:42;;;;;;;2.33;0.85;;;12.80;80.20;;;;;;4971339;28;20487;-64
2024/03/30 06:19:08;;;;;;;1.85;0.80;;;12.80;80.30;;;;;;4990890;28;20057;-64
2024/03/30 06:21:34;;;;;;;1.40;1.25;;;12.80;80.40;;;;;;4989819;28;20034;-63
2024/03/30 06:24:00;;;;;;;1.15;0.63;;;12.80;80.30;;;;;;4992363;28;20034;-64
2024/03/30 06:26:27;;;;;;;0.88;0.70;;;12.80;80.30;;;;;;4975280;28;20538;-64
2024/03/30 06:28:52;;;;;;;0.70;0.70;;;12.80;80.30;;;;;;4973488;28;20034;-64
2024/03/30 06:31:18;;;;;;;1.20;0.68;;;12.80;80.30;;;;;;4992765;28;20065;-64
2024/03/30 06:33:45;;;;;;;1.17;0.77;;;12.90;80.30;;;;;;4991272;28;20026;-63
2024/03/30 06:36:11;;;;;;;0.88;0.57;;;12.90;80.30;;;;;;4990248;28;20125;-63
2024/03/30 06:38:36;;;;;;;1.33;0.77;;;12.90;80.30;;;;;;4992087;28;20109;-63
2024/03/30 06:43:46;;;;;;;2.00;0.98;;;12.90;80.20;;;;;;4991666;28;20093;-63
2024/03/30 06:46:12;;;;;;;1.38;0.80;;;13.00;80.20;;;;;;4988323;28;20412;-64
2024/03/30 06:48:38;;;;;;;1.55;1.00;;;13.00;80.20;;;;;;4985086;28;20018;-64
2024/03/30 06:51:05;;;;;;;1.42;0.90;;;13.00;80.10;;;;;;4990527;28;20026;-64
2024/03/30 06:53:31;;;;;;;1.80;1.33;;;13.00;80.00;;;;;;4991049;28;20181;-64
2024/03/30 06:55:57;;;;;;;1.88;0.95;;;13.00;80.00;;;;;;4990981;28;20122;-64
2024/03/30 06:58:23;;;;;;;2.17;1.30;;;13.00;80.00;;;;;;4985323;28;20106;-64
2024/03/30 07:00:49;;;;;;;2.03;0.82;;;13.00;80.00;;;;;;4991827;28;20361;-65
2024/03/30 07:03:15;;;;;;;2.75;1.58;;;13.00;80.00;;;;;;4972438;28;20558;-65
2024/03/30 07:05:42;;;;;;;3.03;1.55;;;13.10;80.10;;;;;;4991711;28;20038;-64
2024/03/30 07:08:07;;;;;;;2.28;1.00;;;13.10;80.10;;;;;;4991572;28;20038;-64
2024/03/30 07:10:33;;;;;;;2.50;1.60;;;13.20;80.20;;;;;;4992657;28;20038;-67
2024/03/30 07:12:59;;;;;;;3.15;2.25;;;13.20;80.20;;;;;;4990493;28;20034;-67
2024/03/30 07:15:25;;;;;;;4.20;1.63;;;13.20;80.10;;;;;;4991824;28;20477;-67
2024/03/30 07:17:50;;;;;;;2.35;1.35;;;13.30;80.10;;;;;;4973605;28;20030;-68
2024/03/30 07:20:16;;;;;;;3.08;1.38;;;13.30;80.00;;;;;;4991668;28;20027;-67
2024/03/30 07:22:42;;;;;;;2.30;1.10;;;13.40;80.00;;;;;;4984431;28;20026;-67
2024/03/30 07:25:08;;;;;;;2.17;1.20;;;13.40;79.90;;;;;;4989285;28;20400;-68
2024/03/30 07:27:34;;;;;;;1.35;0.93;;;13.50;79.90;;;;;;4988249;28;20026;-68
2024/03/30 07:30:00;;;;;;;2.30;1.20;;;13.50;79.70;;;;;;4972296;28;20604;-67
2024/03/30 07:32:25;;;;;;;1.38;0.98;;;13.60;79.80;;;;;;4991715;28;20046;-68
2024/03/30 07:34:51;;;;;;;1.80;1.17;;;13.60;79.80;;;;;;4988471;28;20038;-67
2024/03/30 07:37:17;;;;;;;2.88;1.00;;;13.60;79.80;;;;;;4988789;28;20181;-68
2024/03/30 07:39:43;;;;;;;1.13;1.00;;;13.60;79.70;;;;;;4989440;28;20023;-68
2024/03/30 07:42:10;;;;;;;0.90;0.90;;;13.60;79.70;;;;;;4979529;28;20035;-68
2024/03/30 07:44:36;;;;;;;1.67;0.70;;;13.70;79.80;;;;;;4986978;28;20181;-67
2024/03/30 07:47:06;;;;;;;1.13;0.88;;;13.70;79.80;;;;;;4978948;28;20452;-68
2024/03/30 07:49:32;;;;;;;2.13;1.40;;;13.70;79.70;;;;;;4986042;28;20477;-67
2024/03/30 07:51:58;;;;;;;1.48;1.17;;;13.70;79.70;;;;;;4981092;28;20487;-67
2024/03/30 07:54:24;;;;;;;1.90;1.30;;;13.60;79.80;;;;;;4987055;28;22066;-68
2024/03/30 07:56:56;;;;;;;2.42;0.90;;;13.60;79.80;;;;;;4989847;28;20115;-67
2024/03/30 07:59:23;;;;;;;1.52;1.30;;;13.60;80.00;;;;;;4986550;28;20030;-68
2024/03/30 08:01:52;;;;;;;3.17;1.90;;;13.60;80.00;;;;;;4985761;28;20152;-67
2024/03/30 08:04:18;;;;;;;2.05;1.58;;;13.60;80.00;;;;;;4982371;28;20501;-67
2024/03/30 08:06:45;;;;;;;1.65;1.25;;;13.60;80.00;;;;;;4969234;28;20023;-67
2024/03/30 08:09:11;;;;;;;1.27;1.13;;;13.50;80.00;;;;;;4991167;28;20044;-68
2024/03/30 08:11:41;;;;;;;1.65;1.50;;;13.50;80.10;;;;;;4986845;28;20519;-64
2024/03/30 08:14:08;;;;;;;2.25;1.48;;;13.50;80.20;;;;;;4990245;28;20076;-64
2024/03/30 08:16:34;;;;;;;1.42;1.00;;;13.60;80.30;;;;;;4990108;28;20069;-64
2024/03/30 08:19:02;;;;;;;1.50;1.00;;;13.60;80.20;;;;;;4988645;28;20042;-64
2024/03/30 08:21:28;;;;;;;1.58;1.20;;;13.60;80.20;;;;;;4987374;28;20117;-64
2024/03/30 08:23:53;;;;;;;3.15;1.15;;;13.60;80.10;;;;;;4985283;28;20494;-64
2024/03/30 08:26:19;;;;;;;1.23;1.00;;;13.70;80.10;;;;;;4990669;28;20044;-64
2024/03/30 08:28:48;;;;;;;2.00;1.08;;;13.70;80.10;;;;;;4990383;28;20034;-64
2024/03/30 08:31:14;;;;;;;1.42;1.20;;;13.80;80.10;;;;;;4990331;28;20105;-66
2024/03/30 08:33:41;;;;;;;1.55;1.27;;;13.80;80.00;;;;;;4990269;28;20027;-68
2024/03/30 08:36:07;;;;;;;1.50;1.40;;;13.90;79.90;;;;;;4989138;28;20069;-67
2024/03/30 08:38:33;;;;;;;1.70;1.20;;;13.90;79.80;;;;;;4990618;28;20053;-64
2024/03/30 08:40:58;;;;;;;1.40;1.17;;;14.10;79.80;;;;;;4990758;28;20034;-68
2024/03/30 08:43:27;;;;;;;2.40;1.67;;;14.20;79.70;;;;;;4990021;28;20030;-68
2024/03/30 08:45:53;;;;;;;1.23;1.05;;;14.30;79.50;;;;;;4989958;28;20049;-66
2024/03/30 08:48:19;;;;;;;1.30;1.10;;;14.40;79.30;;;;;;4972308;28;20481;-64
2024/03/30 08:50:46;;;;;;;1.33;1.08;;;14.50;79.80;;;;;;4955956;28;20057;-65
2024/03/30 08:53:12;;;;;;;1.15;1.02;;;14.70;79.20;;;;;;4989139;28;20396;-68
2024/03/30 08:55:38;;;;;;;3.50;1.63;;;14.80;79.00;;;;;;4972208;28;20436;-68
2024/03/30 08:58:06;;;;;;;1.52;1.02;;;14.90;78.90;;;;;;4990003;28;20022;-68
2024/03/30 09:00:36;;;;;;;2.03;1.58;;;15.00;78.70;;;;;;4988267;28;20109;-68
2024/03/30 09:03:02;;;;;;;1.45;0.98;;;15.10;78.70;;;;;;4988815;28;20489;-68
2024/03/30 09:05:29;;;;;;;1.67;1.30;;;15.20;78.70;;;;;;4989617;28;20093;-69
2024/03/30 09:07:55;;;;;;;2.58;1.48;;;15.20;78.70;;;;;;4989710;28;20022;-70
2024/03/30 09:10:23;;;;;;;1.95;1.25;;;15.30;78.70;;;;;;4972405;28;20572;-71
2024/03/30 09:12:48;;;;;;;3.55;1.92;;;15.30;78.70;;;;;;4989687;28;20469;-71
2024/03/30 09:15:14;;;;;;;2.80;2.28;;;15.30;78.70;;;;;;4989627;28;20162;-69
2024/03/30 09:17:40;;;;;;;3.97;2.17;;;15.30;78.70;;;;;;4972894;28;20484;-71
2024/03/30 09:20:07;;;;;;;4.57;1.70;;;15.40;78.60;;;;;;4971990;28;20026;-70
2024/03/30 09:22:33;;;;;;;2.83;1.90;;;15.40;78.80;;;;;;4989370;28;20053;-72
2024/03/30 09:25:01;;;;;;;3.15;1.98;;;15.30;78.80;;;;;;4989581;28;20468;-69
2024/03/30 09:27:28;;;;;;;2.80;1.63;;;15.30;78.80;;;;;;4988913;28;20077;-69
2024/03/30 09:29:53;;;;;;;1.83;1.33;;;15.30;78.90;;;;;;4972714;28;20407;-66
2024/03/30 09:32:19;;;;;;;2.17;1.30;;;15.40;78.90;;;;;;4972130;28;20484;-66
2024/03/30 09:34:46;;;;;;;1.25;1.00;;;15.40;78.80;;;;;;4985188;28;20050;-66
2024/03/30 09:37:13;;;;;;;2.28;1.10;;;15.40;78.80;;;;;;4988470;28;20026;-69
2024/03/30 09:39:39;;;;;;;2.60;1.00;;;15.50;78.80;;;;;;4990054;28;20079;-69
2024/03/30 09:42:13;;;;;;;1.20;1.08;;;15.50;78.60;;;;;;4988734;28;20507;-68
2024/03/30 09:44:39;;;;;;;3.08;1.38;;;15.50;78.50;;;;;;4987700;28;20031;-68
2024/03/30 09:47:06;;;;;;;1.75;1.33;;;15.50;78.60;;;;;;4961493;28;20376;-68
2024/03/30 09:49:33;;;;;;;2.33;1.08;;;15.50;78.60;;;;;;4979952;28;20040;-68
2024/03/30 09:52:06;;;;;;;1.77;1.30;;;15.60;78.60;;;;;;4987010;28;20376;-68
2024/03/30 09:54:31;;;;;;;;;;;15.60;78.60;;;;;;4986002;28;20054;-65
2024/03/30 09:56:58;;;;;;;1.35;1.20;;;15.70;78.50;;;;;;4984070;28;19918;-65
2024/03/30 09:59:24;;;;;;;1.48;1.15;;;15.70;78.30;;;;;;4986665;28;20034;-65
2024/03/30 10:01:50;;;;;;;3.88;1.88;;;15.80;78.10;;;;;;4986721;28;20061;-65
2024/03/30 10:04:16;;;;;;;2.83;1.20;;;15.80;78.10;;;;;;4984118;28;20023;-65
2024/03/30 10:07:03;;;;;;;2.22;0.95;;;15.90;77.90;;;;;;4984408;28;20096;-65
2024/03/30 10:09:29;;;;;;;2.97;1.30;;;16.00;77.90;;;;;;4977908;28;20018;-65
2024/03/30 10:12:03;;;;;;;5.28;2.45;;;16.10;77.80;;;;;;4982650;28;20031;-65
2024/03/30 10:14:35;;;;;;;2.97;1.67;;;16.20;77.50;;;;;;4980639;28;20113;-68
2024/03/30 10:17:01;;;;;;;3.28;1.23;;;16.40;77.20;;;;;;4973982;28;20026;-68
2024/03/30 10:19:30;;;;;;;3.38;1.08;;;16.60;76.50;;;;;;4978807;28;20030;-69
2024/03/30 10:21:56;;;;;;;4.22;1.27;;;16.60;76.30;;;;;;4979232;28;20022;-69
2024/03/30 10:24:23;;;;;;;4.68;1.10;;;16.60;75.90;;;;;;4982208;28;20022;-69
2024/03/30 10:26:49;;;;;;;3.13;1.95;;;16.60;75.80;;;;;;4984768;28;20617;-69
2024/03/30 10:29:15;;;;;;;7.05;1.45;;;16.60;75.90;;;;;;4976428;28;20134;-69
2024/03/30 10:31:42;;;;;;;2.30;0.98;;;16.60;76.00;;;;;;4962246;28;20069;-69
2024/03/30 10:34:07;;;;;;;2.88;1.30;;;16.50;76.00;;;;;;4983250;28;20018;-69
2024/03/30 10:36:33;;;;;;;1.55;1.08;;;16.50;76.10;;;;;;4983856;28;20404;-66
2024/03/30 10:39:03;;;;;;;3.22;1.23;;;16.50;76.00;;;;;;4983286;28;20392;-66
2024/03/30 10:41:29;;;;;;;3.38;1.83;;;16.40;76.00;;;;;;4982519;28;20554;-66
2024/03/30 10:43:55;;;;;;;4.07;1.58;;;16.40;76.20;;;;;;4966122;28;20070;-66
2024/03/30 10:46:23;;;;;;;4.05;1.55;;;16.30;76.10;;;;;;4983782;28;20045;-66
2024/03/30 10:48:50;;;;;;;2.95;1.45;;;16.30;76.20;;;;;;4986018;28;20037;-66
2024/03/30 10:51:16;;;;;;;3.50;0.82;;;16.40;76.10;;;;;;4985213;28;21512;-66
2024/03/30 10:53:42;;;;;;;2.75;1.10;;;16.50;76.10;;;;;;4985320;28;20047;-65
2024/03/30 10:56:09;;;;;;;4.63;0.95;;;16.50;76.00;;;;;;4973571;28;20049;-65
2024/03/30 10:58:36;;;;;;;9.93;1.13;;;16.50;76.00;;;;;;4982835;28;20031;-66
2024/03/30 11:01:07;;;;;;;3.83;1.73;;;16.60;75.80;;;;;;4988871;28;20050;-65
2024/03/30 11:03:33;;;;;;;1.23;1.00;;;16.60;75.80;;;;;;4986761;28;20380;-66
2024/03/30 11:06:00;;;;;;;1.40;0.85;;;16.70;75.80;;;;;;4954848;28;20563;-66
2024/03/30 11:08:26;;;;;;;1.00;0.75;;;16.80;75.80;;;;;;4983088;28;20650;-66
2024/03/30 11:10:53;;;;;;;8.25;2.15;;;16.80;75.60;;;;;;4986320;28;20441;-66
2024/03/30 11:13:19;;;;;;;4.03;1.13;;;16.80;75.30;;;;;;4986479;28;20412;-66
2024/03/30 11:15:47;;;;;;;7.32;1.40;;;16.90;75.40;;;;;;4967643;28;20038;-66
2024/03/30 11:18:32;;;;;;;3.88;1.33;;;16.90;75.30;;;;;;4979667;28;20113;-66
2024/03/30 11:21:26;;;;;;;2.22;1.00;;;16.90;75.30;;;;;;4970614;28;20030;-66
2024/03/30 11:23:56;;;;;;;4.47;0.95;;;16.90;75.30;;;;;;4978972;28;20258;-66
2024/03/30 11:26:26;;;;;;;5.03;2.08;;;16.90;75.20;;;;;;4983678;28;20258;-66
2024/03/30 11:29:03;;;;;;;3.55;0.85;;;16.90;75.20;;;;;;4982411;28;20057;-65
2024/03/30 11:31:48;;;;;;;7.63;1.25;;;17.00;75.40;;;;;;4986741;28;20707;-66
2024/03/30 11:34:46;;;;;;;4.28;1.48;;;17.00;75.40;;;;;;4986639;28;20101;-65
2024/03/30 11:37:33;;;;;;;11.13;2.83;;;17.00;75.30;;;;;;4984798;28;20111;-69
2024/03/30 11:40:13;;;;;;;6.53;0.93;;;17.20;75.00;;;;;;4990055;28;20437;-69
2024/03/30 11:42:48;;;;;;;4.93;1.95;;;17.20;75.00;;;;;;4986444;28;20279;-69
2024/03/30 11:45:20;;;;;;;2.65;1.73;;;17.20;74.90;;;;;;4989709;28;20031;-66
2024/03/30 11:47:46;;;;;;;1.50;1.15;;;17.30;74.80;;;;;;4991176;28;20037;-66
2024/03/30 11:50:13;;;;;;;5.72;1.88;;;17.30;74.70;;;;;;4991075;28;20022;-66
2024/03/30 11:52:48;;;;;;;3.78;1.40;;;17.30;74.70;;;;;;4990301;28;20096;-66
2024/03/30 11:55:31;;;;;;;1.83;1.30;;;17.20;74.70;;;;;;4988169;28;20093;-66
2024/03/30 11:57:59;;;;;;;4.85;1.48;;;17.20;74.80;;;;;;4984942;28;20035;-69
2024/03/30 12:00:31;;;;;;;3.47;1.15;;;17.10;74.80;;;;;;4988596;28;20444;-66
2024/03/30 12:03:06;;;;;;;4.07;1.33;;;17.10;75.00;;;;;;4971351;28;20458;-66
2024/03/30 12:05:32;;;;;;;2.45;1.42;;;17.10;75.10;;;;;;4989167;28;20543;-65
2024/03/30 12:07:58;;;;;;;2.67;1.98;;;17.10;75.00;;;;;;4969880;28;20079;-68
2024/03/30 12:10:26;;;;;;;2.92;0.88;;;17.10;75.00;;;;;;4969298;28;20046;-66
2024/03/30 12:13:02;;;;;;;2.05;1.60;;;17.00;75.00;;;;;;4982223;28;20409;-66
2024/03/30 12:15:28;;;;;;;5.07;1.92;;;17.00;75.10;;;;;;4983780;28;20038;-65
2024/03/30 12:17:54;;;;;;;5.18;1.17;;;17.00;75.10;;;;;;4988530;28;20030;-66
2024/03/30 12:20:20;;;;;;;2.03;0.90;;;16.90;75.00;;;;;;4989079;28;20022;-65
2024/03/30 12:22:46;;;;;;;8.32;1.67;;;16.90;75.20;;;;;;4969763;28;20026;-65
2024/03/30 12:25:12;;;;;;;3.17;1.00;;;16.80;75.00;;;;;;4986429;28;20040;-65
2024/03/30 12:27:41;;;;;;;6.50;1.48;;;16.90;75.00;;;;;;4989953;28;20679;-66
2024/03/30 12:30:08;;;;;;;4.43;1.60;;;17.00;74.60;;;;;;4968982;28;20133;-66
2024/03/30 12:32:34;;;;;;;4.28;1.38;;;17.10;74.50;;;;;;4989390;28;20192;-66
2024/03/30 12:35:00;;;;;;;4.53;1.40;;;17.30;73.70;;;;;;4990731;28;20026;-66
2024/03/30 12:37:25;;;;;;;5.28;1.55;;;17.30;73.20;;;;;;4986167;28;20491;-66
2024/03/30 12:39:52;;;;;;;11.75;2.20;;;17.30;72.90;;;;;;4988311;28;20034;-66
2024/03/30 12:42:21;;;;;;;7.55;2.17;;;17.30;72.40;;;;;;4989353;28;20042;-65
2024/03/30 12:44:53;;;;;;;5.63;1.40;;;17.40;72.20;;;;;;4971045;28;20026;-63
2024/03/30 12:47:18;;;;;;;9.68;2.55;;;17.40;71.80;;;;;;4989814;28;20042;-64
2024/03/30 12:49:44;;;;;;;5.15;1.83;;;17.40;71.40;;;;;;4990534;28;20189;-64
2024/03/30 12:52:10;;;;;;;15.23;2.88;;;17.40;70.90;;;;;;4987856;28;20032;-64
2024/03/30 12:54:37;;;;;;;3.25;1.05;;;17.40;69.60;;;;;;4983927;28;20497;-64